Artesian, South Dakota
Current Conditions -  °F | °C
As of 8:53 AM on Friday 24 Oct 2014 (Local Time) from KMHE Reporting Station
Clear Clear  
Wind Chill: 44°   Ceiling: Unl
Heat Index: 44°   Visibility: 10mi
Dew Point: 41°   Wind: 3mph
Humidity: 89%   Direction: 280°W
Pressure: 29.89"   Gusts: NA
Location:  44.01°N, 97.92°W
Report Text: KMHE 241353Z AUTO 28003KT 10SM CLR 07/05 A2989 RMK AO2 SLP127 T00670050
Loading
Personal Weather Stations






























Interactive Weather Map
Tropical Storm Tracking
New forecast layout! Learn more

10-Day Weather Forecast

Advertisements
Track Severe Weather on mobile